Time,TemperatureF,DewpointF,PressureIn,WindDirection,WindDirectionDegrees,WindSpeedMPH,WindSpeedGustMPH,Humidity,HourlyPrecipIn,Conditions,Clouds,dailyrainin,SoftwareType,DateUTC
2013-02-10 00:00:00,44.4,42.2,17.82,SW,231,1.0,1.0,92,0.00,,,0.00,Wunderground v.1.15,2013-02-10 06:00:00,
2013-02-10 00:06:00,44.5,42.3,17.82,SE,125,0.0,2.0,92,0.00,,,0.00,Wunderground v.1.15,2013-02-10 06:06:00,
2013-02-10 00:11:00,44.5,42.3,17.82,SSE,166,0.0,1.0,92,0.00,,,0.00,Wunderground v.1.15,2013-02-10 06:11:00,
2013-02-10 00:16:00,44.6,42.4,17.82,WNW,290,0.0,1.0,92,0.00,,,0.00,Wunderground v.1.15,2013-02-10 06:16:00,
2013-02-10 00:21:00,44.6,42.1,17.82,SE,124,0.0,1.0,91,0.00,,,0.00,Wunderground v.1.15,2013-02-10 06:21:00,
2013-02-10 00:27:00,44.7,42.2,17.82,NE,52,0.0,3.0,91,0.00,,,0.00,Wunderground v.1.15,2013-02-10 06:27:00,
2013-02-10 00:32:00,44.8,42.3,17.82,SSW,202,0.0,1.0,91,0.00,,,0.00,Wunderground v.1.15,2013-02-10 06:32:00,
2013-02-10 00:37:00,44.9,42.4,17.82,ESE,119,0.0,2.0,91,0.00,,,0.00,Wunderground v.1.15,2013-02-10 06:37:00,
2013-02-10 00:43:00,45.0,42.8,17.82,SE,126,0.0,2.0,92,0.00,,,0.00,Wunderground v.1.15,2013-02-10 06:43:00,
2013-02-10 00:48:00,45.1,42.9,17.82,SSE,154,0.0,2.0,92,0.00,,,0.00,Wunderground v.1.15,2013-02-10 06:48:00,
2013-02-10 00:53:00,45.3,43.1,17.82,NE,46,1.0,2.0,92,0.00,,,0.00,Wunderground v.1.15,2013-02-10 06:53:00,
2013-02-10 00:59:00,45.5,43.3,17.82,ESE,123,0.0,2.0,92,0.00,,,0.00,Wunderground v.1.15,2013-02-10 06:59:00,
2013-02-10 01:05:00,45.7,43.5,16.59,ESE,115,1.0,2.0,92,0.00,,,0.00,Wunderground v.1.15,2013-02-10 07:05:00,
2013-02-10 01:10:00,45.8,43.6,16.59,ESE,115,0.0,0.0,92,0.00,,,0.00,Wunderground v.1.15,2013-02-10 07:10:00,
2013-02-10 01:15:00,45.9,43.7,16.59,SSW,194,0.0,0.0,92,0.00,,,0.00,Wunderground v.1.15,2013-02-10 07:15:00,
2013-02-10 01:21:00,46.1,43.9,16.59,South,172,0.0,0.0,92,0.00,,,0.00,Wunderground v.1.15,2013-02-10 07:21:00,
2013-02-10 01:26:00,46.3,44.1,16.59,South,184,0.0,1.0,92,0.00,,,0.00,Wunderground v.1.15,2013-02-10 07:26:00,
2013-02-10 01:31:00,46.4,44.2,16.13,SE,146,0.0,0.0,92,0.00,,,0.00,Wunderground v.1.15,2013-02-10 07:31:00,
2013-02-10 01:37:00,46.5,44.3,16.13,SE,139,0.0,0.0,92,0.00,,,0.00,Wunderground v.1.15,2013-02-10 07:37:00,
2013-02-10 01:42:00,46.6,44.4,16.13,SE,143,1.0,1.0,92,0.00,,,0.00,Wunderground v.1.15,2013-02-10 07:42:00,
2013-02-10 01:47:00,46.7,44.5,16.22,ESE,109,1.0,1.0,92,0.00,,,0.00,Wunderground v.1.15,2013-02-10 07:47:00,
2013-02-10 01:52:00,46.9,44.7,16.22,SSE,160,0.0,0.0,92,0.00,,,0.00,Wunderground v.1.15,2013-02-10 07:52:00,
2013-02-10 01:58:00,47.0,44.8,16.22,NE,53,0.0,2.0,92,0.00,,,0.00,Wunderground v.1.15,2013-02-10 07:58:00,
2013-02-10 02:03:00,47.3,45.1,16.22,ESE,104,0.0,6.0,92,0.00,,,0.00,Wunderground v.1.15,2013-02-10 08:03:00,
2013-02-10 02:08:00,47.5,45.3,16.22,NNE,14,1.0,6.0,92,0.00,,,0.00,Wunderground v.1.15,2013-02-10 08:08:00,
2013-02-10 02:13:00,47.6,45.4,16.22,SSE,150,1.0,3.0,92,0.00,,,0.00,Wunderground v.1.15,2013-02-10 08:13:00,
2013-02-10 02:18:00,47.8,45.6,16.22,ESE,121,1.0,4.0,92,0.00,,,0.00,Wunderground v.1.15,2013-02-10 08:18:00,
2013-02-10 02:23:00,47.9,45.7,16.22,ESE,121,0.0,6.0,92,0.00,,,0.00,Wunderground v.1.15,2013-02-10 08:23:00,
2013-02-10 02:28:00,48.1,45.9,16.22,SSE,164,0.0,6.0,92,0.00,,,0.00,Wunderground v.1.15,2013-02-10 08:28:00,
2013-02-10 02:33:00,48.3,46.1,18.10,SE,137,0.0,4.0,92,0.00,,,0.00,Wunderground v.1.15,2013-02-10 08:33:00,
2013-02-10 02:38:00,48.4,46.2,18.10,South,175,0.0,4.0,92,0.00,,,0.00,Wunderground v.1.15,2013-02-10 08:38:00,
2013-02-10 02:43:00,48.5,46.3,18.10,West,266,0.0,1.0,92,0.00,,,0.00,Wunderground v.1.15,2013-02-10 08:43:00,
2013-02-10 02:48:00,48.6,46.4,18.10,West,265,1.0,1.0,92,0.00,,,0.00,Wunderground v.1.15,2013-02-10 08:48:00,
2013-02-10 02:53:00,48.7,46.5,18.10,NW,316,0.0,1.0,92,0.00,,,0.00,Wunderground v.1.15,2013-02-10 08:53:00,
2013-02-10 02:58:00,48.8,46.6,17.94,NW,316,0.0,1.0,92,0.00,,,0.00,Wunderground v.1.15,2013-02-10 08:58:00,
2013-02-10 03:03:00,48.8,46.6,17.94,NW,316,0.0,0.0,92,0.00,,,0.00,Wunderground v.1.15,2013-02-10 09:03:00,
2013-02-10 03:08:00,48.9,46.7,17.94,SW,235,0.0,1.0,92,0.00,,,0.00,Wunderground v.1.15,2013-02-10 09:08:00,
2013-02-10 03:13:00,49.0,46.8,17.94,SW,235,0.0,1.0,92,0.00,,,0.00,Wunderground v.1.15,2013-02-10 09:13:00,
2013-02-10 03:18:00,49.1,46.9,17.94,SW,235,0.0,1.0,92,0.00,,,0.00,Wunderground v.1.15,2013-02-10 09:18:00,
2013-02-10 03:23:00,49.1,46.9,17.94,SW,235,0.0,0.0,92,0.00,,,0.00,Wunderground v.1.15,2013-02-10 09:23:00,
2013-02-10 03:28:00,49.2,47.3,17.94,SW,217,0.0,1.0,93,1.70,,,0.03,Wunderground v.1.15,2013-02-10 09:28:00,
2013-02-10 03:33:00,49.3,47.4,17.94,South,188,0.0,2.0,93,0.59,,,0.13,Wunderground v.1.15,2013-02-10 09:33:00,
2013-02-10 03:38:00,49.6,47.7,18.26,SSW,211,0.0,2.0,93,0.83,,,0.19,Wunderground v.1.15,2013-02-10 09:38:00,
2013-02-10 03:43:00,49.8,47.9,18.26,South,186,0.0,6.0,93,0.93,,,0.23,Wunderground v.1.15,2013-02-10 09:43:00,
2013-02-10 03:48:00,50.0,48.1,18.26,SW,223,0.0,6.0,93,0.13,,,0.24,Wunderground v.1.15,2013-02-10 09:48:00,
2013-02-10 03:53:00,50.2,48.3,18.26,SW,215,2.0,4.0,93,0.14,,,0.25,Wunderground v.1.15,2013-02-10 09:53:00,
2013-02-10 03:58:00,50.3,48.4,18.26,SSE,148,0.0,6.0,93,0.09,,,0.26,Wunderground v.1.15,2013-02-10 09:58:00,
2013-02-10 04:03:00,50.4,48.5,17.18,SW,215,0.0,5.0,93,0.12,,,0.27,Wunderground v.1.15,2013-02-10 10:03:00,
2013-02-10 04:08:00,50.4,48.5,17.18,SSE,168,3.0,5.0,93,0.27,,,0.29,Wunderground v.1.15,2013-02-10 10:08:00,
2013-02-10 04:13:00,50.4,48.5,17.18,SSE,152,1.0,5.0,93,0.09,,,0.30,Wunderground v.1.15,2013-02-10 10:13:00,
2013-02-10 04:18:00,50.4,48.5,17.18,ESE,109,0.0,5.0,93,0.15,,,0.32,Wunderground v.1.15,2013-02-10 10:18:00,
2013-02-10 04:23:00,50.4,48.5,17.18,SSW,212,3.0,7.0,93,0.14,,,0.33,Wunderground v.1.15,2013-02-10 10:23:00,
2013-02-10 04:28:00,50.4,48.5,17.18,SSW,212,1.0,7.0,93,0.06,,,0.33,Wunderground v.1.15,2013-02-10 10:28:00,
2013-02-10 04:33:00,50.4,48.5,17.18,East,101,2.0,4.0,93,0.04,,,0.33,Wunderground v.1.15,2013-02-10 10:33:00,
2013-02-10 04:38:00,50.4,48.5,17.18,SE,132,0.0,5.0,93,0.00,,,0.33,Wunderground v.1.15,2013-02-10 10:38:00,
2013-02-10 04:43:00,50.3,48.4,20.02,SSE,152,1.0,3.0,93,0.00,,,0.33,Wunderground v.1.15,2013-02-10 10:43:00,
2013-02-10 04:48:00,50.4,48.5,20.02,East,101,0.0,6.0,93,0.00,,,0.33,Wunderground v.1.15,2013-02-10 10:48:00,
2013-02-10 04:53:00,50.5,48.6,20.02,SW,215,1.0,3.0,93,0.00,,,0.33,Wunderground v.1.15,2013-02-10 10:53:00,
2013-02-10 04:58:00,50.5,48.6,20.02,East,86,0.0,7.0,93,0.00,,,0.34,Wunderground v.1.15,2013-02-10 10:58:00,
2013-02-10 05:03:00,50.6,48.7,20.02,SE,127,0.0,5.0,93,0.00,,,0.34,Wunderground v.1.15,2013-02-10 11:03:00,
2013-02-10 05:08:00,50.8,48.8,18.09,SSE,155,0.0,5.0,93,0.00,,,0.34,Wunderground v.1.15,2013-02-10 11:08:00,
2013-02-10 05:13:00,50.8,48.8,18.09,South,184,0.0,3.0,93,0.04,,,0.35,Wunderground v.1.15,2013-02-10 11:13:00,
2013-02-10 05:18:00,51.0,49.0,18.09,West,261,0.0,3.0,93,0.04,,,0.35,Wunderground v.1.15,2013-02-10 11:18:00,
2013-02-10 05:23:00,51.1,49.1,17.23,SSW,198,0.0,2.0,93,0.04,,,0.35,Wunderground v.1.15,2013-02-10 11:23:00,
2013-02-10 05:28:00,51.2,49.2,16.30,South,180,0.0,5.0,93,0.04,,,0.35,Wunderground v.1.15,2013-02-10 11:28:00,
2013-02-10 05:33:00,51.3,49.3,16.30,South,172,1.0,2.0,93,0.00,,,0.35,Wunderground v.1.15,2013-02-10 11:33:00,
2013-02-10 05:38:00,51.4,49.4,16.30,SSW,196,0.0,4.0,93,0.00,,,0.35,Wunderground v.1.15,2013-02-10 11:38:00,
2013-02-10 05:43:00,51.5,49.8,16.30,SSE,159,0.0,5.0,94,0.00,,,0.35,Wunderground v.1.15,2013-02-10 11:43:00,
2013-02-10 05:48:00,51.5,49.8,16.30,South,173,0.0,5.0,94,0.00,,,0.35,Wunderground v.1.15,2013-02-10 11:48:00,
2013-02-10 05:53:00,51.5,49.8,16.30,East,86,0.0,1.0,94,0.00,,,0.35,Wunderground v.1.15,2013-02-10 11:53:00,
2013-02-10 05:58:00,51.5,49.5,16.30,SE,141,0.0,1.0,93,0.00,,,0.35,Wunderground v.1.15,2013-02-10 11:58:00,
2013-02-10 06:03:00,51.5,49.5,16.30,SE,141,0.0,0.0,93,0.00,,,0.35,Wunderground v.1.15,2013-02-10 12:03:00,
2013-02-10 06:08:00,51.5,49.8,16.30,SE,141,0.0,0.0,94,0.00,,,0.35,Wunderground v.1.15,2013-02-10 12:08:00,
2013-02-10 06:13:00,51.5,49.8,16.30,SSW,203,0.0,0.0,94,0.00,,,0.35,Wunderground v.1.15,2013-02-10 12:13:00,
2013-02-10 06:18:00,51.5,49.8,16.30,SSW,203,0.0,0.0,94,0.00,,,0.35,Wunderground v.1.15,2013-02-10 12:18:00,
2013-02-10 06:23:00,51.5,49.5,16.30,SSW,203,0.0,0.0,93,0.00,,,0.35,Wunderground v.1.15,2013-02-10 12:23:00,
2013-02-10 06:28:00,51.4,49.4,16.30,SSW,203,0.0,1.0,93,0.00,,,0.35,Wunderground v.1.15,2013-02-10 12:28:00,
2013-02-10 06:33:00,51.3,49.3,16.30,SSW,203,0.0,0.0,93,0.00,,,0.35,Wunderground v.1.15,2013-02-10 12:33:00,
2013-02-10 06:38:00,51.2,49.2,16.30,SW,217,0.0,1.0,93,0.00,,,0.35,Wunderground v.1.15,2013-02-10 12:38:00,
2013-02-10 06:43:00,51.2,49.2,16.30,SW,214,0.0,2.0,93,0.00,,,0.35,Wunderground v.1.15,2013-02-10 12:43:00,
2013-02-10 06:48:00,51.3,49.3,16.30,SSE,167,0.0,3.0,93,0.00,,,0.35,Wunderground v.1.15,2013-02-10 12:48:00,
2013-02-10 06:53:00,51.5,49.8,16.30,SSE,159,0.0,2.0,94,0.00,,,0.35,Wunderground v.1.15,2013-02-10 12:53:00,
2013-02-10 06:58:00,51.7,50.0,16.30,ESE,108,0.0,2.0,94,0.00,,,0.35,Wunderground v.1.15,2013-02-10 12:58:00,
2013-02-10 07:03:00,51.8,50.1,16.30,SE,137,0.0,2.0,94,0.00,,,0.35,Wunderground v.1.15,2013-02-10 13:03:00,
2013-02-10 07:08:00,51.9,50.2,16.30,SE,138,0.0,3.0,94,0.00,,,0.35,Wunderground v.1.15,2013-02-10 13:08:00,
2013-02-10 07:13:00,51.9,50.2,16.30,South,191,0.0,1.0,94,0.00,,,0.35,Wunderground v.1.15,2013-02-10 13:13:00,
2013-02-10 07:18:00,52.0,50.3,16.30,South,188,0.0,1.0,94,0.00,,,0.35,Wunderground v.1.15,2013-02-10 13:18:00,
2013-02-10 07:23:00,52.0,50.3,20.03,SE,133,0.0,1.0,94,0.00,,,0.35,Wunderground v.1.15,2013-02-10 13:23:00,
2013-02-10 07:29:00,52.1,50.4,20.03,South,180,0.0,2.0,94,0.00,,,0.36,Wunderground v.1.15,2013-02-10 13:29:00,
2013-02-10 07:34:00,52.2,50.5,20.03,SSE,153,0.0,1.0,94,0.00,,,0.36,Wunderground v.1.15,2013-02-10 13:34:00,
2013-02-10 07:39:00,52.3,50.6,20.03,SE,146,1.0,5.0,94,0.00,,,0.36,Wunderground v.1.15,2013-02-10 13:39:00,
2013-02-10 07:44:00,52.6,50.9,20.03,WSW,257,1.0,5.0,94,0.00,,,0.36,Wunderground v.1.15,2013-02-10 13:44:00,
2013-02-10 07:49:00,52.9,51.2,20.03,SW,232,1.0,6.0,94,0.00,,,0.36,Wunderground v.1.15,2013-02-10 13:49:00,
2013-02-10 07:54:00,53.1,51.4,20.03,SSE,159,1.0,3.0,94,0.00,,,0.36,Wunderground v.1.15,2013-02-10 13:54:00,
2013-02-10 07:59:00,53.3,51.6,20.03,SSE,164,1.0,4.0,94,0.00,,,0.36,Wunderground v.1.15,2013-02-10 13:59:00,
2013-02-10 08:04:00,53.4,51.7,20.03,NNE,30,0.0,3.0,94,0.00,,,0.36,Wunderground v.1.15,2013-02-10 14:04:00,
2013-02-10 08:09:00,53.5,51.8,20.03,WSW,254,0.0,3.0,94,0.00,,,0.36,Wunderground v.1.15,2013-02-10 14:09:00,
2013-02-10 08:14:00,53.7,52.0,20.03,ESE,111,0.0,3.0,94,0.00,,,0.36,Wunderground v.1.15,2013-02-10 14:14:00,
2013-02-10 08:19:00,53.9,52.2,20.03,NNE,25,0.0,9.0,94,0.00,,,0.36,Wunderground v.1.15,2013-02-10 14:19:00,
2013-02-10 08:24:00,54.1,52.4,20.03,SE,140,1.0,4.0,94,0.00,,,0.36,Wunderground v.1.15,2013-02-10 14:24:00,
2013-02-10 08:29:00,54.2,52.5,20.03,SW,227,1.0,6.0,94,0.00,,,0.36,Wunderground v.1.15,2013-02-10 14:29:00,
2013-02-10 08:34:00,54.2,52.5,20.03,SW,232,1.0,2.0,94,0.00,,,0.36,Wunderground v.1.15,2013-02-10 14:34:00,
2013-02-10 08:39:00,54.3,52.6,20.03,NE,37,0.0,14.0,94,0.00,,,0.36,Wunderground v.1.15,2013-02-10 14:39:00,
2013-02-10 08:44:00,54.3,52.6,20.03,NE,56,0.0,6.0,94,0.00,,,0.36,Wunderground v.1.15,2013-02-10 14:44:00,
2013-02-10 08:49:00,54.3,52.6,20.03,NNW,337,0.0,6.0,94,0.00,,,0.36,Wunderground v.1.15,2013-02-10 14:49:00,
2013-02-10 08:54:00,54.2,52.5,20.03,North,360,0.0,4.0,94,0.00,,,0.36,Wunderground v.1.15,2013-02-10 14:54:00,
2013-02-10 08:59:00,54.1,52.4,20.03,NE,40,1.0,6.0,94,0.00,,,0.36,Wunderground v.1.15,2013-02-10 14:59:00,
2013-02-10 09:04:00,54.1,52.1,20.03,SSE,163,3.0,3.0,93,0.00,,,0.36,Wunderground v.1.15,2013-02-10 15:04:00,
2013-02-10 09:09:00,53.9,51.9,20.03,East,98,2.0,4.0,93,0.00,,,0.36,Wunderground v.1.15,2013-02-10 15:09:00,
2013-02-10 09:14:00,53.9,51.9,20.03,North,349,0.0,3.0,93,0.00,,,0.36,Wunderground v.1.15,2013-02-10 15:14:00,
2013-02-10 09:19:00,53.9,51.9,20.03,South,185,1.0,4.0,93,0.00,,,0.36,Wunderground v.1.15,2013-02-10 15:19:00,
2013-02-10 09:24:00,53.6,51.3,20.03,ENE,71,0.0,5.0,92,0.00,,,0.36,Wunderground v.1.15,2013-02-10 15:24:00,
2013-02-10 09:29:00,53.3,50.7,20.03,WNW,298,0.0,5.0,91,0.00,,,0.36,Wunderground v.1.15,2013-02-10 15:29:00,
2013-02-10 09:34:00,53.2,50.6,20.03,ESE,102,0.0,3.0,91,0.00,,,0.36,Wunderground v.1.15,2013-02-10 15:34:00,
2013-02-10 09:39:00,53.3,50.7,20.03,South,177,2.0,4.0,91,0.00,,,0.36,Wunderground v.1.15,2013-02-10 15:39:00,
2013-02-10 09:44:00,53.9,51.3,20.03,SE,126,3.0,4.0,91,0.00,,,0.36,Wunderground v.1.15,2013-02-10 15:44:00,
2013-02-10 09:49:00,54.0,51.1,20.03,SSE,152,2.0,5.0,90,0.00,,,0.36,Wunderground v.1.15,2013-02-10 15:49:00,
2013-02-10 09:54:00,54.5,51.3,20.03,ENE,60,2.0,7.0,89,0.00,,,0.36,Wunderground v.1.15,2013-02-10 15:54:00,
2013-02-10 09:59:00,55.5,52.3,20.03,East,95,0.0,7.0,89,0.00,,,0.36,Wunderground v.1.15,2013-02-10 15:59:00,
2013-02-10 10:04:00,56.1,51.7,20.03,NNW,336,0.0,7.0,85,0.00,,,0.36,Wunderground v.1.15,2013-02-10 16:04:00,
2013-02-10 10:09:00,56.3,50.9,20.03,ESE,113,2.0,7.0,82,0.00,,,0.36,Wunderground v.1.15,2013-02-10 16:09:00,
2013-02-10 10:14:00,56.2,49.1,20.03,ENE,75,2.0,6.0,77,0.00,,,0.36,Wunderground v.1.15,2013-02-10 16:14:00,
2013-02-10 10:19:00,56.9,49.8,32.08,North,5,1.0,6.0,77,0.00,,,0.36,Wunderground v.1.15,2013-02-10 16:19:00,
2013-02-10 10:24:00,57.3,48.7,32.08,WNW,298,2.0,7.0,73,0.00,,,0.36,Wunderground v.1.15,2013-02-10 16:24:00,
2013-02-10 10:29:00,57.6,49.0,32.08,ENE,58,0.0,7.0,73,0.00,,,0.36,Wunderground v.1.15,2013-02-10 16:29:00,
2013-02-10 10:34:00,58.0,48.6,32.08,SSE,156,1.0,5.0,71,0.00,,,0.36,Wunderground v.1.15,2013-02-10 16:34:00,
2013-02-10 10:39:00,58.5,48.0,32.08,SSE,150,3.0,6.0,68,0.00,,,0.36,Wunderground v.1.15,2013-02-10 16:39:00,
2013-02-10 10:44:00,58.8,47.5,32.08,ENE,65,1.0,6.0,66,0.00,,,0.36,Wunderground v.1.15,2013-02-10 16:44:00,
2013-02-10 10:49:00,59.0,46.8,32.08,NE,42,3.0,6.0,64,0.00,,,0.36,Wunderground v.1.15,2013-02-10 16:49:00,
2013-02-10 10:54:00,59.0,46.8,32.08,NE,44,0.0,4.0,64,0.00,,,0.36,Wunderground v.1.15,2013-02-10 16:54:00,
2013-02-10 10:59:00,59.3,46.3,32.08,NNW,331,0.0,7.0,62,0.00,,,0.36,Wunderground v.1.15,2013-02-10 16:59:00,
2013-02-10 11:04:00,59.7,45.8,32.08,West,262,1.0,4.0,60,0.00,,,0.36,Wunderground v.1.15,2013-02-10 17:04:00,
2013-02-10 11:09:00,59.8,45.9,32.08,SE,143,2.0,5.0,60,0.00,,,0.36,Wunderground v.1.15,2013-02-10 17:09:00,
2013-02-10 11:14:00,59.7,43.5,32.08,ESE,111,4.0,4.0,55,0.00,,,0.36,Wunderground v.1.15,2013-02-10 17:14:00,
2013-02-10 11:19:00,59.6,43.9,32.08,ESE,111,1.0,4.0,56,0.00,,,0.36,Wunderground v.1.15,2013-02-10 17:19:00,
2013-02-10 11:24:00,59.9,42.7,32.08,ENE,64,0.0,3.0,53,0.00,,,0.36,Wunderground v.1.15,2013-02-10 17:24:00,
2013-02-10 11:29:00,60.2,42.0,32.08,ENE,74,2.0,5.0,51,0.00,,,0.36,Wunderground v.1.15,2013-02-10 17:29:00,
2013-02-10 11:35:00,60.4,40.6,32.08,NNE,30,1.0,5.0,48,0.00,,,0.36,Wunderground v.1.15,2013-02-10 17:35:00,
2013-02-10 11:40:00,60.9,41.6,32.08,ENE,67,4.0,4.0,49,0.00,,,0.36,Wunderground v.1.15,2013-02-10 17:40:00,
2013-02-10 11:45:00,61.0,41.2,32.08,South,178,1.0,6.0,48,0.00,,,0.36,Wunderground v.1.15,2013-02-10 17:45:00,
2013-02-10 11:50:00,61.1,41.8,32.08,ENE,78,1.0,2.0,49,0.00,,,0.36,Wunderground v.1.15,2013-02-10 17:50:00,
2013-02-10 11:55:00,61.3,41.4,32.08,ENE,69,1.0,4.0,48,0.00,,,0.36,Wunderground v.1.15,2013-02-10 17:55:00,
2013-02-10 12:00:00,61.6,41.7,32.08,NNE,21,1.0,1.0,48,0.00,,,0.36,Wunderground v.1.15,2013-02-10 18:00:00,
2013-02-10 12:05:00,61.8,41.9,32.08,East,80,1.0,4.0,48,0.00,,,0.36,Wunderground v.1.15,2013-02-10 18:05:00,
2013-02-10 12:10:00,61.8,39.6,32.08,SE,136,2.0,2.0,44,0.00,,,0.36,Wunderground v.1.15,2013-02-10 18:10:00,
2013-02-10 12:15:00,61.2,39.1,32.08,WNW,300,3.0,6.0,44,0.00,,,0.36,Wunderground v.1.15,2013-02-10 18:15:00,
2013-02-10 12:20:00,61.2,39.1,32.08,SE,146,1.0,4.0,44,0.00,,,0.36,Wunderground v.1.15,2013-02-10 18:20:00,
2013-02-10 12:25:00,61.3,38.6,32.08,ENE,61,3.0,6.0,43,0.00,,,0.36,Wunderground v.1.15,2013-02-10 18:25:00,
2013-02-10 12:30:00,61.3,38.6,32.08,WNW,300,2.0,3.0,43,0.00,,,0.36,Wunderground v.1.15,2013-02-10 18:30:00,
2013-02-10 12:35:00,61.3,38.6,32.08,WSW,246,1.0,11.0,43,0.00,,,0.36,Wunderground v.1.15,2013-02-10 18:35:00,
2013-02-10 12:40:00,61.7,38.4,32.08,ESE,122,0.0,3.0,42,0.00,,,0.36,Wunderground v.1.15,2013-02-10 18:40:00,
2013-02-10 12:45:00,61.8,39.6,32.08,NE,53,1.0,6.0,44,0.00,,,0.36,Wunderground v.1.15,2013-02-10 18:45:00,
2013-02-10 12:50:00,62.0,40.4,22.05,NE,44,0.0,1.0,45,0.00,,,0.36,Wunderground v.1.15,2013-02-10 18:50:00,
2013-02-10 12:55:00,62.4,39.6,22.05,NE,34,5.0,5.0,43,0.00,,,0.36,Wunderground v.1.15,2013-02-10 18:55:00,
2013-02-10 13:00:00,62.0,37.4,22.05,NE,42,3.0,3.0,40,0.00,,,0.36,Wunderground v.1.15,2013-02-10 19:00:00,
2013-02-10 13:05:00,62.0,38.6,22.05,ENE,63,0.0,5.0,42,0.00,,,0.36,Wunderground v.1.15,2013-02-10 19:05:00,
2013-02-10 13:10:00,62.3,37.7,22.05,East,81,6.0,9.0,40,0.00,,,0.36,Wunderground v.1.15,2013-02-10 19:10:00,
2013-02-10 13:15:00,62.3,38.3,22.05,East,95,1.0,9.0,41,0.00,,,0.36,Wunderground v.1.15,2013-02-10 19:15:00,
2013-02-10 13:20:00,62.4,37.1,22.05,ENE,61,3.0,4.0,39,0.00,,,0.36,Wunderground v.1.15,2013-02-10 19:20:00,
2013-02-10 13:25:00,62.1,37.5,22.05,NE,48,1.0,6.0,40,0.00,,,0.36,Wunderground v.1.15,2013-02-10 19:25:00,
2013-02-10 13:30:00,62.1,37.5,22.05,South,184,1.0,2.0,40,0.00,,,0.36,Wunderground v.1.15,2013-02-10 19:30:00,
2013-02-10 13:35:00,61.9,36.7,22.05,ESE,105,1.0,5.0,39,0.00,,,0.36,Wunderground v.1.15,2013-02-10 19:35:00,
2013-02-10 13:40:00,62.0,36.7,22.05,ENE,72,4.0,4.0,39,0.00,,,0.36,Wunderground v.1.15,2013-02-10 19:40:00,
2013-02-10 13:45:00,61.5,35.6,22.05,NE,51,0.0,5.0,38,0.00,,,0.36,Wunderground v.1.15,2013-02-10 19:45:00,
2013-02-10 13:50:00,61.2,36.0,22.05,ENE,75,2.0,4.0,39,0.00,,,0.36,Wunderground v.1.15,2013-02-10 19:50:00,
2013-02-10 13:55:00,61.1,35.3,22.05,NE,42,0.0,6.0,38,0.00,,,0.36,Wunderground v.1.15,2013-02-10 19:55:00,
2013-02-10 14:00:00,61.6,36.4,22.05,NE,36,2.0,3.0,39,0.00,,,0.36,Wunderground v.1.15,2013-02-10 20:00:00,
2013-02-10 14:05:00,61.5,36.9,22.05,ESE,103,3.0,7.0,40,0.00,,,0.36,Wunderground v.1.15,2013-02-10 20:05:00,
2013-02-10 14:10:00,61.2,34.7,22.05,WNW,301,0.0,2.0,37,0.00,,,0.36,Wunderground v.1.15,2013-02-10 20:10:00,
2013-02-10 14:15:00,61.2,35.4,22.05,NE,46,1.0,4.0,38,0.00,,,0.36,Wunderground v.1.15,2013-02-10 20:15:00,
2013-02-10 14:20:00,60.9,34.4,22.05,NE,52,3.0,6.0,37,0.00,,,0.36,Wunderground v.1.15,2013-02-10 20:20:00,
2013-02-10 14:25:00,60.5,33.4,22.05,East,86,0.0,7.0,36,0.00,,,0.36,Wunderground v.1.15,2013-02-10 20:25:00,
2013-02-10 14:30:00,60.4,35.3,22.05,North,5,1.0,4.0,39,0.00,,,0.36,Wunderground v.1.15,2013-02-10 20:30:00,
2013-02-10 14:35:00,60.5,34.1,22.05,SE,124,1.0,5.0,37,0.00,,,0.36,Wunderground v.1.15,2013-02-10 20:35:00,
2013-02-10 14:40:00,60.3,33.2,22.05,SSE,148,2.0,4.0,36,0.00,,,0.36,Wunderground v.1.15,2013-02-10 20:40:00,
2013-02-10 14:45:00,60.0,34.3,22.05,East,84,1.0,7.0,38,0.00,,,0.36,Wunderground v.1.15,2013-02-10 20:45:00,
2013-02-10 14:50:00,59.9,34.2,22.05,East,80,1.0,3.0,38,0.00,,,0.36,Wunderground v.1.15,2013-02-10 20:50:00,
2013-02-10 14:55:00,59.8,33.5,22.05,NNE,22,1.0,7.0,37,0.00,,,0.36,Wunderground v.1.15,2013-02-10 20:55:00,
2013-02-10 15:01:00,59.8,34.1,22.05,SSE,163,2.0,7.0,38,0.00,,,0.36,Wunderground v.1.15,2013-02-10 21:01:00,
2013-02-10 15:06:00,59.6,33.9,22.05,ENE,76,3.0,7.0,38,0.00,,,0.36,Wunderground v.1.15,2013-02-10 21:06:00,
2013-02-10 15:11:00,59.4,33.1,22.05,SE,128,0.0,5.0,37,0.00,,,0.36,Wunderground v.1.15,2013-02-10 21:11:00,
2013-02-10 15:16:00,59.0,32.7,22.05,SE,143,2.0,7.0,37,0.00,,,0.36,Wunderground v.1.15,2013-02-10 21:16:00,
2013-02-10 15:21:00,59.0,32.7,22.05,East,101,1.0,4.0,37,0.00,,,0.36,Wunderground v.1.15,2013-02-10 21:21:00,
2013-02-10 15:26:00,59.0,33.4,22.05,NE,46,3.0,5.0,38,0.00,,,0.36,Wunderground v.1.15,2013-02-10 21:26:00,
2013-02-10 15:31:00,58.8,33.2,22.05,NE,49,3.0,6.0,38,0.00,,,0.36,Wunderground v.1.15,2013-02-10 21:31:00,
2013-02-10 15:36:00,58.4,33.5,22.05,NE,48,2.0,6.0,39,0.00,,,0.36,Wunderground v.1.15,2013-02-10 21:36:00,
2013-02-10 15:41:00,58.2,33.3,22.05,NNE,31,1.0,3.0,39,0.00,,,0.36,Wunderground v.1.15,2013-02-10 21:41:00,
2013-02-10 15:46:00,57.9,33.1,22.05,SE,138,0.0,4.0,39,0.00,,,0.36,Wunderground v.1.15,2013-02-10 21:46:00,
2013-02-10 15:51:00,57.8,33.0,22.05,SSE,150,4.0,6.0,39,0.00,,,0.36,Wunderground v.1.15,2013-02-10 21:51:00,
2013-02-10 15:56:00,57.7,32.9,22.05,East,92,2.0,6.0,39,0.00,,,0.36,Wunderground v.1.15,2013-02-10 21:56:00,
2013-02-10 16:01:00,57.7,32.9,22.05,SE,130,0.0,3.0,39,0.00,,,0.36,Wunderground v.1.15,2013-02-10 22:01:00,
2013-02-10 16:06:00,57.6,32.8,22.05,East,86,1.0,7.0,39,0.00,,,0.36,Wunderground v.1.15,2013-02-10 22:06:00,
2013-02-10 16:11:00,57.5,33.3,22.05,NE,36,0.0,3.0,40,0.00,,,0.36,Wunderground v.1.15,2013-02-10 22:11:00,
2013-02-10 16:16:00,57.5,32.7,22.05,South,184,1.0,5.0,39,0.00,,,0.36,Wunderground v.1.15,2013-02-10 22:16:00,
2013-02-10 16:21:00,57.4,33.3,22.05,NNE,30,1.0,2.0,40,0.00,,,0.36,Wunderground v.1.15,2013-02-10 22:21:00,
2013-02-10 16:26:00,57.3,33.8,22.05,ESE,107,3.0,6.0,41,0.00,,,0.36,Wunderground v.1.15,2013-02-10 22:26:00,
2013-02-10 16:31:00,57.2,33.1,22.05,North,5,1.0,4.0,40,0.00,,,0.36,Wunderground v.1.15,2013-02-10 22:31:00,
2013-02-10 16:36:00,57.1,33.0,22.05,SE,136,0.0,4.0,40,0.00,,,0.36,Wunderground v.1.15,2013-02-10 22:36:00,
2013-02-10 16:42:00,57.1,33.0,22.05,NNE,18,1.0,3.0,40,0.00,,,0.36,Wunderground v.1.15,2013-02-10 22:42:00,
2013-02-10 16:47:00,57.0,32.9,22.05,ENE,67,0.0,4.0,40,0.00,,,0.36,Wunderground v.1.15,2013-02-10 22:47:00,
2013-02-10 16:52:00,56.9,32.8,22.05,ENE,76,2.0,2.0,40,0.00,,,0.36,Wunderground v.1.15,2013-02-10 22:52:00,
2013-02-10 16:57:00,56.8,32.7,22.05,ENE,67,0.0,3.0,40,0.00,,,0.36,Wunderground v.1.15,2013-02-10 22:57:00,
2013-02-10 17:02:00,56.7,33.2,22.05,North,360,0.0,1.0,41,0.00,,,0.36,Wunderground v.1.15,2013-02-10 23:02:00,
2013-02-10 17:07:00,56.6,33.8,22.05,NE,52,1.0,3.0,42,0.00,,,0.36,Wunderground v.1.15,2013-02-10 23:07:00,
2013-02-10 17:12:00,56.4,33.6,22.05,East,96,0.0,2.0,42,0.00,,,0.36,Wunderground v.1.15,2013-02-10 23:12:00,
2013-02-10 17:17:00,56.2,32.8,22.05,East,80,1.0,2.0,41,0.00,,,0.36,Wunderground v.1.15,2013-02-10 23:17:00,
2013-02-10 17:22:00,56.1,32.7,22.05,East,81,0.0,4.0,41,0.00,,,0.36,Wunderground v.1.15,2013-02-10 23:22:00,
2013-02-10 17:27:00,56.0,32.6,22.05,ENE,61,0.0,6.0,41,0.00,,,0.36,Wunderground v.1.15,2013-02-10 23:27:00,
2013-02-10 17:32:00,55.8,32.4,22.05,NNE,29,0.0,4.0,41,0.00,,,0.36,Wunderground v.1.15,2013-02-10 23:32:00,
2013-02-10 17:37:00,55.7,32.3,22.05,NNE,13,0.0,4.0,41,0.00,,,0.36,Wunderground v.1.15,2013-02-10 23:37:00,
2013-02-10 17:42:00,55.5,32.2,22.05,ENE,75,0.0,2.0,41,0.00,,,0.36,Wunderground v.1.15,2013-02-10 23:42:00,
2013-02-10 17:47:00,55.3,32.6,22.05,SE,128,0.0,3.0,42,0.00,,,0.36,Wunderground v.1.15,2013-02-10 23:47:00,
2013-02-10 17:52:00,55.0,32.9,22.05,North,360,0.0,2.0,43,0.00,,,0.36,Wunderground v.1.15,2013-02-10 23:52:00,
2013-02-10 17:57:00,54.8,32.7,22.05,NE,53,0.0,3.0,43,0.00,,,0.36,Wunderground v.1.15,2013-02-10 23:57:00,
2013-02-10 18:02:00,54.5,31.9,22.05,ENE,71,0.0,4.0,42,0.00,,,0.36,Wunderground v.1.15,2013-02-11 00:02:00,
2013-02-10 18:07:00,54.3,32.8,22.05,NE,52,0.0,4.0,44,0.00,,,0.36,Wunderground v.1.15,2013-02-11 00:07:00,
2013-02-10 18:12:00,54.1,32.1,22.05,NE,44,0.0,1.0,43,0.00,,,0.36,Wunderground v.1.15,2013-02-11 00:12:00,
2013-02-10 18:17:00,53.8,32.4,22.05,ENE,64,0.0,2.0,44,0.00,,,0.36,Wunderground v.1.15,2013-02-11 00:17:00,
2013-02-10 18:22:00,53.5,32.1,22.05,North,11,0.0,1.0,44,0.00,,,0.36,Wunderground v.1.15,2013-02-11 00:22:00,
2013-02-10 18:27:00,53.3,31.9,22.05,North,11,0.0,1.0,44,0.00,,,0.36,Wunderground v.1.15,2013-02-11 00:27:00,
2013-02-10 18:32:00,53.0,32.8,22.05,North,11,0.0,1.0,46,0.00,,,0.36,Wunderground v.1.15,2013-02-11 00:32:00,
2013-02-10 18:37:00,52.6,32.4,22.05,North,11,0.0,1.0,46,0.00,,,0.36,Wunderground v.1.15,2013-02-11 00:37:00,
2013-02-10 18:42:00,52.4,32.2,22.05,North,11,0.0,0.0,46,0.00,,,0.36,Wunderground v.1.15,2013-02-11 00:42:00,
2013-02-10 18:47:00,52.1,32.5,22.05,North,11,0.0,0.0,47,0.00,,,0.36,Wunderground v.1.15,2013-02-11 00:47:00,
2013-02-10 18:52:00,51.8,32.7,22.05,North,11,0.0,0.0,48,0.00,,,0.36,Wunderground v.1.15,2013-02-11 00:52:00,
2013-02-10 18:57:00,51.5,32.4,22.05,North,11,0.0,0.0,48,0.00,,,0.36,Wunderground v.1.15,2013-02-11 00:57:00,
2013-02-10 19:02:00,51.1,32.1,22.05,North,11,0.0,0.0,48,0.00,,,0.36,Wunderground v.1.15,2013-02-11 01:02:00,
2013-02-10 19:07:00,50.8,32.8,22.05,North,11,0.0,0.0,50,0.00,,,0.36,Wunderground v.1.15,2013-02-11 01:07:00,
2013-02-10 19:12:00,50.5,32.0,22.05,North,11,0.0,1.0,49,0.00,,,0.36,Wunderground v.1.15,2013-02-11 01:12:00,
2013-02-10 19:17:00,50.2,32.3,22.05,NE,44,0.0,1.0,50,0.00,,,0.36,Wunderground v.1.15,2013-02-11 01:17:00,
2013-02-10 19:22:00,50.0,32.1,22.05,East,91,0.0,1.0,50,0.00,,,0.36,Wunderground v.1.15,2013-02-11 01:22:00,
2013-02-10 19:27:00,49.9,32.0,26.64,SSE,148,0.0,1.0,50,0.00,,,0.36,Wunderground v.1.15,2013-02-11 01:27:00,
2013-02-10 19:32:00,50.0,31.6,26.64,ESE,117,1.0,2.0,49,0.00,,,0.36,Wunderground v.1.15,2013-02-11 01:32:00,
2013-02-10 19:37:00,50.0,31.1,26.64,SSE,151,0.0,2.0,48,0.00,,,0.36,Wunderground v.1.15,2013-02-11 01:37:00,
2013-02-10 19:42:00,50.1,30.6,26.64,ENE,65,0.0,1.0,47,0.00,,,0.36,Wunderground v.1.15,2013-02-11 01:42:00,
2013-02-10 19:47:00,50.0,30.5,26.64,ENE,59,0.0,2.0,47,0.00,,,0.36,Wunderground v.1.15,2013-02-11 01:47:00,
2013-02-10 19:52:00,50.0,30.5,26.64,NNE,29,0.0,2.0,47,0.00,,,0.36,Wunderground v.1.15,2013-02-11 01:52:00,
2013-02-10 19:57:00,50.0,30.5,26.64,SSE,156,0.0,2.0,47,0.00,,,0.36,Wunderground v.1.15,2013-02-11 01:57:00,
2013-02-10 20:02:00,49.8,30.4,26.64,ENE,65,0.0,2.0,47,0.00,,,0.36,Wunderground v.1.15,2013-02-11 02:02:00,
2013-02-10 20:07:00,49.7,29.7,26.64,South,173,5.0,5.0,46,0.00,,,0.36,Wunderground v.1.15,2013-02-11 02:07:00,
2013-02-10 20:12:00,49.7,30.3,26.64,NE,40,2.0,3.0,47,0.00,,,0.36,Wunderground v.1.15,2013-02-11 02:12:00,
2013-02-10 20:17:00,49.5,30.1,26.64,WNW,283,0.0,3.0,47,0.00,,,0.36,Wunderground v.1.15,2013-02-11 02:17:00,
2013-02-10 20:22:00,49.3,30.4,26.64,East,82,2.0,5.0,48,0.00,,,0.36,Wunderground v.1.15,2013-02-11 02:22:00,
2013-02-10 20:27:00,49.1,31.2,26.64,NNE,24,1.0,5.0,50,0.00,,,0.36,Wunderground v.1.15,2013-02-11 02:27:00,
2013-02-10 20:32:00,48.8,31.0,26.64,NE,46,1.0,3.0,50,0.00,,,0.36,Wunderground v.1.15,2013-02-11 02:32:00,
2013-02-10 20:37:00,48.3,31.0,26.64,East,99,1.0,3.0,51,0.00,,,0.36,Wunderground v.1.15,2013-02-11 02:37:00,
2013-02-10 20:43:00,47.8,30.5,26.64,ENE,67,0.0,10.0,51,0.00,,,0.36,Wunderground v.1.15,2013-02-11 02:43:00,
2013-02-10 20:48:00,47.4,30.6,26.64,ESE,109,0.0,10.0,52,0.00,,,0.36,Wunderground v.1.15,2013-02-11 02:48:00,
2013-02-10 20:53:00,46.9,30.2,26.64,NNW,330,1.0,3.0,52,0.00,,,0.36,Wunderground v.1.15,2013-02-11 02:53:00,
2013-02-10 20:58:00,46.5,30.3,26.64,West,269,0.0,3.0,53,0.00,,,0.36,Wunderground v.1.15,2013-02-11 02:58:00,
2013-02-10 21:03:00,46.2,30.5,26.64,ENE,66,0.0,2.0,54,0.00,,,0.36,Wunderground v.1.15,2013-02-11 03:03:00,
2013-02-10 21:08:00,45.9,30.2,26.64,SSE,149,0.0,6.0,54,0.00,,,0.36,Wunderground v.1.15,2013-02-11 03:08:00,
2013-02-10 21:13:00,45.6,29.9,26.64,West,276,1.0,3.0,54,0.00,,,0.36,Wunderground v.1.15,2013-02-11 03:13:00,
2013-02-10 21:18:00,45.3,29.6,26.64,ENE,76,0.0,3.0,54,0.00,,,0.36,Wunderground v.1.15,2013-02-11 03:18:00,
2013-02-10 21:23:00,45.1,29.4,26.64,ESE,111,0.0,3.0,54,0.00,,,0.36,Wunderground v.1.15,2013-02-11 03:23:00,
2013-02-10 21:28:00,44.9,29.7,26.64,ESE,103,0.0,3.0,55,0.00,,,0.36,Wunderground v.1.15,2013-02-11 03:28:00,
2013-02-10 21:33:00,44.6,29.4,26.64,ENE,57,1.0,1.0,55,0.00,,,0.36,Wunderground v.1.15,2013-02-11 03:33:00,
2013-02-10 21:38:00,44.4,29.7,26.64,North,360,0.0,6.0,56,0.00,,,0.36,Wunderground v.1.15,2013-02-11 03:38:00,
2013-02-10 21:43:00,44.2,29.5,26.64,NW,304,0.0,1.0,56,0.00,,,0.36,Wunderground v.1.15,2013-02-11 03:43:00,
2013-02-10 21:48:00,44.0,29.3,26.64,East,86,0.0,3.0,56,0.00,,,0.36,Wunderground v.1.15,2013-02-11 03:48:00,
2013-02-10 21:53:00,43.8,29.1,23.28,NNW,327,0.0,2.0,56,0.00,,,0.36,Wunderground v.1.15,2013-02-11 03:53:00,
2013-02-10 21:58:00,43.6,28.9,23.28,SE,127,0.0,5.0,56,0.00,,,0.36,Wunderground v.1.15,2013-02-11 03:58:00,
2013-02-10 22:03:00,43.4,28.7,23.28,SE,141,0.0,3.0,56,0.00,,,0.36,Wunderground v.1.15,2013-02-11 04:03:00,
2013-02-10 22:08:00,43.3,28.6,23.28,NNE,15,0.0,3.0,56,0.00,,,0.36,Wunderground v.1.15,2013-02-11 04:08:00,
2013-02-10 22:13:00,43.1,28.5,23.28,ESE,115,0.0,4.0,56,0.00,,,0.36,Wunderground v.1.15,2013-02-11 04:13:00,
2013-02-10 22:18:00,43.1,28.5,23.28,ENE,77,0.0,4.0,56,0.00,,,0.36,Wunderground v.1.15,2013-02-11 04:18:00,
2013-02-10 22:23:00,42.9,28.3,23.28,East,84,2.0,3.0,56,0.00,,,0.36,Wunderground v.1.15,2013-02-11 04:23:00,
2013-02-10 22:28:00,42.8,28.6,23.28,ESE,104,1.0,3.0,57,0.00,,,0.36,Wunderground v.1.15,2013-02-11 04:28:00,
2013-02-10 22:33:00,42.7,28.5,23.28,NW,324,1.0,2.0,57,0.00,,,0.36,Wunderground v.1.15,2013-02-11 04:33:00,
2013-02-10 22:38:00,42.6,28.4,23.28,NE,46,0.0,2.0,57,0.00,,,0.36,Wunderground v.1.15,2013-02-11 04:38:00,
2013-02-10 22:43:00,42.5,28.3,23.28,North,360,0.0,2.0,57,0.00,,,0.36,Wunderground v.1.15,2013-02-11 04:43:00,
2013-02-10 22:48:00,42.3,28.6,23.28,NNW,337,0.0,5.0,58,0.00,,,0.36,Wunderground v.1.15,2013-02-11 04:48:00,
2013-02-10 22:53:00,42.2,28.5,23.28,NNW,337,0.0,0.0,58,0.00,,,0.36,Wunderground v.1.15,2013-02-11 04:53:00,
2013-02-10 22:58:00,42.0,28.3,23.28,NNW,329,0.0,4.0,58,0.00,,,0.36,Wunderground v.1.15,2013-02-11 04:58:00,
2013-02-10 23:00:00,42.0,28.3,23.28,NNW,329,1.0,1.0,58,0.00,,,0.36,Wunderground v.1.15,2013-02-11 05:00:00,
2013-02-10 23:05:00,41.8,28.1,23.28,NNW,329,0.0,1.0,58,0.00,,,0.36,Wunderground v.1.15,2013-02-11 05:05:00,
2013-02-10 23:10:00,41.6,28.3,23.28,NW,313,0.0,0.0,59,0.00,,,0.36,Wunderground v.1.15,2013-02-11 05:10:00,
2013-02-10 23:15:00,41.4,28.1,23.28,NW,313,0.0,2.0,59,0.00,,,0.36,Wunderground v.1.15,2013-02-11 05:15:00,
2013-02-10 23:20:00,41.3,28.4,23.28,NW,313,0.0,1.0,60,0.00,,,0.36,Wunderground v.1.15,2013-02-11 05:20:00,
2013-02-10 23:25:00,41.1,28.3,23.28,NW,313,0.0,1.0,60,0.00,,,0.36,Wunderground v.1.15,2013-02-11 05:25:00,
2013-02-10 23:30:00,41.0,28.2,23.28,NW,313,0.0,0.0,60,0.00,,,0.36,Wunderground v.1.15,2013-02-11 05:30:00,
2013-02-10 23:35:00,40.8,28.0,23.28,NW,313,0.0,0.0,60,0.00,,,0.36,Wunderground v.1.15,2013-02-11 05:35:00,
2013-02-10 23:40:00,40.6,27.8,23.28,NW,313,0.0,0.0,60,0.00,,,0.36,Wunderground v.1.15,2013-02-11 05:40:00,
2013-02-10 23:45:00,40.4,28.0,23.28,NW,313,0.0,0.0,61,0.00,,,0.36,Wunderground v.1.15,2013-02-11 05:45:00,
2013-02-10 23:50:00,40.2,27.8,23.28,NW,313,0.0,0.0,61,0.00,,,0.36,Wunderground v.1.15,2013-02-11 05:50:00,
2013-02-10 23:55:00,40.0,27.6,23.28,NW,313,0.0,0.0,61,0.00,,,0.36,Wunderground v.1.15,2013-02-11 05:55:00,